createdAt,value
2022-12-09T00:01:25.390Z,86.22
2022-12-09T00:03:55.551Z,83.00
2022-12-09T00:06:27.769Z,83.05
2022-12-09T00:08:57.179Z,86.05
2022-12-09T00:11:25.392Z,84.93
2022-12-09T00:13:56.834Z,88.60
2022-12-09T00:16:25.744Z,85.50
2022-12-09T00:18:53.774Z,87.22
2022-12-09T00:21:29.167Z,82.13
2022-12-09T00:23:59.758Z,87.00
2022-12-09T00:26:28.286Z,80.35
2022-12-09T00:28:56.832Z,85.97
2022-12-09T00:31:29.556Z,79.38
2022-12-09T00:34:07.890Z,78.03
2022-12-09T00:36:38.288Z,78.70
2022-12-09T00:39:05.958Z,75.75
2022-12-09T00:41:33.496Z,79.28
2022-12-09T00:44:00.863Z,77.35
2022-12-09T00:46:28.316Z,74.72
2022-12-09T00:48:55.833Z,75.38
2022-12-09T00:51:25.208Z,67.88
2022-12-09T00:53:57.172Z,72.03
2022-12-09T00:56:29.428Z,70.30
2022-12-09T00:58:58.701Z,64.20
2022-12-09T01:01:27.771Z,66.03
2022-12-09T01:03:56.089Z,62.17
2022-12-09T01:06:26.321Z,64.85
2022-12-09T01:08:53.868Z,67.30
2022-12-09T01:11:29.058Z,59.80
2022-12-09T01:14:01.431Z,61.67
2022-12-09T01:16:33.490Z,55.67
2022-12-09T01:19:07.905Z,56.50
2022-12-09T01:21:36.046Z,55.40
2022-12-09T01:24:11.473Z,59.15
2022-12-09T01:26:40.876Z,60.88
2022-12-09T01:29:08.501Z,59.53
2022-12-09T01:31:36.257Z,58.90
2022-12-09T01:34:04.009Z,65.50
2022-12-09T01:36:31.742Z,60.67
2022-12-09T01:39:00.753Z,60.72
2022-12-09T01:41:28.725Z,60.80
2022-12-09T01:44:23.223Z,66.95
2022-12-09T01:47:00.297Z,73.35
2022-12-09T01:49:39.145Z,69.13
2022-12-09T01:52:19.129Z,73.38
2022-12-09T01:54:49.043Z,76.18
2022-12-09T01:57:17.198Z,78.80
2022-12-09T01:59:45.494Z,76.80
2022-12-09T02:02:17.851Z,74.63
2022-12-09T02:04:48.825Z,71.97
2022-12-09T02:07:19.774Z,79.70
2022-12-09T02:09:53.216Z,83.00
2022-12-09T02:13:02.806Z,80.53
2022-12-09T02:15:53.628Z,84.57
2022-12-09T02:18:52.842Z,80.07
2022-12-09T02:21:38.408Z,79.60
2022-12-09T02:24:34.818Z,78.80
2022-12-09T02:30:23.215Z,76.20
2022-12-09T02:33:33.545Z,78.82
2022-12-09T02:36:13.235Z,79.82
2022-12-09T02:38:43.055Z,82.85
2022-12-09T02:41:26.897Z,81.18
2022-12-09T02:44:11.176Z,75.68
2022-12-09T02:46:41.826Z,83.97
2022-12-09T02:49:12.989Z,83.72
2022-12-09T02:51:44.763Z,84.95
2022-12-09T02:54:18.762Z,78.05
2022-12-09T02:57:00.212Z,83.22
2022-12-09T02:59:29.710Z,81.95
2022-12-09T03:02:24.323Z,84.88
2022-12-09T03:05:22.099Z,88.78
2022-12-09T03:08:28.378Z,86.40
2022-12-09T03:11:10.661Z,88.20
2022-12-09T03:14:12.499Z,89.05
2022-12-09T03:16:54.862Z,79.07
2022-12-09T03:19:37.879Z,82.22
2022-12-09T03:22:12.901Z,78.95
2022-12-09T03:24:54.374Z,77.93
2022-12-09T03:28:06.236Z,89.80
2022-12-09T03:30:39.777Z,91.22
2022-12-09T03:33:09.521Z,101.88
2022-12-09T03:35:43.415Z,95.13
2022-12-09T03:38:16.449Z,91.43
2022-12-09T03:40:44.801Z,95.22
2022-12-09T03:43:21.616Z,86.97
2022-12-09T03:45:56.369Z,86.80
2022-12-09T03:48:24.305Z,83.13
2022-12-09T03:51:12.399Z,88.28
2022-12-09T03:54:06.864Z,85.22
2022-12-09T03:56:42.795Z,89.68
2022-12-09T03:59:16.193Z,91.97
2022-12-09T04:01:46.001Z,88.80
2022-12-09T04:04:14.598Z,88.70
2022-12-09T04:06:42.488Z,90.95
2022-12-09T04:09:12.167Z,90.65
2022-12-09T04:11:39.814Z,87.47
2022-12-09T04:14:13.724Z,88.68
2022-12-09T04:19:11.802Z,84.05
2022-12-09T04:21:39.222Z,87.55
2022-12-09T04:24:07.973Z,90.40
2022-12-09T04:26:35.531Z,88.25
2022-12-09T04:29:03.218Z,94.38
2022-12-09T04:31:30.739Z,96.15
2022-12-09T04:34:00.644Z,110.70
2022-12-09T04:36:31.811Z,94.05
2022-12-09T04:38:59.894Z,94.38
2022-12-09T04:41:28.472Z,100.50
2022-12-09T04:43:56.158Z,94.97
2022-12-09T04:46:23.975Z,102.57
2022-12-09T04:48:51.496Z,104.25
2022-12-09T04:51:20.188Z,100.30
2022-12-09T04:53:47.363Z,106.70
2022-12-09T04:56:20.283Z,110.18
2022-12-09T04:58:50.166Z,107.47
2022-12-09T05:01:30.109Z,108.72
2022-12-09T05:03:59.772Z,104.55
2022-12-09T05:06:27.700Z,102.32
2022-12-09T05:08:55.822Z,105.78
2022-12-09T05:11:24.436Z,105.53
2022-12-09T05:13:53.912Z,107.22
2022-12-09T05:16:22.533Z,106.82
2022-12-09T05:18:50.736Z,114.07
2022-12-09T05:21:20.944Z,104.30
2022-12-09T05:23:49.623Z,112.47
2022-12-09T05:26:22.720Z,106.53
2022-12-09T05:28:51.672Z,115.25
2022-12-09T05:31:22.960Z,117.10
2022-12-09T05:33:51.652Z,111.05
2022-12-09T05:36:24.761Z,101.95
2022-12-09T05:38:53.512Z,101.88
2022-12-09T05:41:22.879Z,104.68
2022-12-09T05:43:51.322Z,105.22
2022-12-09T05:46:19.209Z,109.88
2022-12-09T05:48:46.806Z,113.30
2022-12-09T05:51:28.776Z,117.03
2022-12-09T05:54:01.371Z,112.50
2022-12-09T05:56:30.006Z,107.80
2022-12-09T05:58:58.866Z,122.28
2022-12-09T06:01:27.462Z,118.75
2022-12-09T06:03:55.790Z,119.28
2022-12-09T06:06:28.000Z,115.60
2022-12-09T06:09:00.859Z,109.47
2022-12-09T06:11:29.390Z,105.00
2022-12-09T06:13:57.574Z,102.75
2022-12-09T06:16:25.842Z,84.60
2022-12-09T06:18:53.584Z,82.85
2022-12-09T06:21:22.012Z,92.63
2022-12-09T06:23:50.624Z,78.55
2022-12-09T06:26:29.220Z,77.78
2022-12-09T06:28:58.428Z,68.53
2022-12-09T06:31:28.294Z,77.95
2022-12-09T06:33:57.614Z,68.55
2022-12-09T06:36:29.162Z,63.95
2022-12-09T06:39:10.217Z,66.85
2022-12-09T06:41:42.160Z,74.07
2022-12-09T06:44:16.917Z,73.95
2022-12-09T06:46:47.197Z,67.97
2022-12-09T06:49:14.561Z,79.43
2022-12-09T06:51:42.260Z,76.20
2022-12-09T06:54:10.375Z,82.35
2022-12-09T06:56:37.953Z,78.13
2022-12-09T06:59:10.615Z,84.20
2022-12-09T07:01:39.601Z,87.87
2022-12-09T07:04:07.900Z,86.40
2022-12-09T07:06:45.288Z,96.53
2022-12-09T07:09:20.969Z,90.88
2022-12-09T07:11:49.028Z,101.45
2022-12-09T07:14:18.362Z,93.85
2022-12-09T07:16:46.754Z,96.80
2022-12-09T07:19:23.340Z,87.88
2022-12-09T07:21:52.551Z,86.10
2022-12-09T07:24:20.584Z,92.43
2022-12-09T07:26:48.841Z,75.72
2022-12-09T07:29:17.821Z,66.97
2022-12-09T07:31:45.350Z,68.32
2022-12-09T07:34:12.900Z,63.35
2022-12-09T07:36:40.697Z,60.63
2022-12-09T07:39:15.725Z,65.82
2022-12-09T07:41:44.053Z,63.85
2022-12-09T07:44:12.634Z,60.88
2022-12-09T07:46:40.859Z,54.13
2022-12-09T07:49:10.954Z,56.10
2022-12-09T07:51:38.364Z,54.83
2022-12-09T07:54:06.142Z,49.28
2022-12-09T07:56:33.687Z,49.90
2022-12-09T07:59:01.009Z,41.13
2022-12-09T08:01:30.446Z,36.72
2022-12-09T08:03:58.559Z,38.95
2022-12-09T08:06:30.382Z,38.58
2022-12-09T08:09:05.090Z,38.67
2022-12-09T08:11:34.309Z,40.28
2022-12-09T08:14:11.355Z,38.60
2022-12-09T08:16:42.579Z,43.70
2022-12-09T08:19:12.276Z,50.13
2022-12-09T08:21:40.738Z,36.88
2022-12-09T08:24:11.966Z,32.53
2022-12-09T08:26:40.288Z,31.98
2022-12-09T08:29:14.380Z,27.77
2022-12-09T08:31:44.305Z,27.52
2022-12-09T08:34:13.089Z,27.20
2022-12-09T08:36:42.409Z,28.27
2022-12-09T08:39:13.169Z,33.17
2022-12-09T08:41:43.134Z,30.83
2022-12-09T08:44:20.259Z,30.70
2022-12-09T08:46:52.996Z,34.58
2022-12-09T08:49:23.426Z,35.67
2022-12-09T08:51:53.687Z,36.08
2022-12-09T08:54:21.616Z,36.28
2022-12-09T08:56:52.918Z,31.02
2022-12-09T08:59:20.878Z,31.88
2022-12-09T09:01:48.664Z,35.00
2022-12-09T09:04:19.588Z,30.60
2022-12-09T09:06:50.782Z,25.35
2022-12-09T09:09:20.551Z,25.80
2022-12-09T09:11:48.236Z,23.58
2022-12-09T09:14:16.775Z,25.83
2022-12-09T09:16:46.284Z,26.40
2022-12-09T09:19:25.769Z,32.08
2022-12-09T09:21:55.330Z,30.38
2022-12-09T09:24:25.281Z,27.38
2022-12-09T09:26:54.030Z,29.08
2022-12-09T09:29:23.772Z,30.40
2022-12-09T09:31:54.530Z,31.50
2022-12-09T09:34:24.913Z,29.58
2022-12-09T09:36:52.896Z,30.40
2022-12-09T09:39:21.750Z,28.75
2022-12-09T09:42:17.135Z,27.75
2022-12-09T09:44:52.147Z,30.77
2022-12-09T09:48:03.756Z,31.33
2022-12-09T09:51:02.327Z,27.75
2022-12-09T09:53:35.649Z,25.92
2022-12-09T09:56:43.822Z,26.17
2022-12-09T10:00:14.868Z,22.38
2022-12-09T10:03:55.012Z,17.90
2022-12-09T10:07:07.432Z,19.73
2022-12-09T10:10:39.466Z,15.50
2022-12-09T10:13:53.721Z,17.70
2022-12-09T10:16:55.212Z,17.25
2022-12-09T10:19:49.552Z,19.60
2022-12-09T10:22:23.989Z,18.67
2022-12-09T10:24:58.277Z,19.92
2022-12-09T10:27:43.368Z,29.50
2022-12-09T10:30:16.294Z,23.58
2022-12-09T10:32:45.903Z,18.13
2022-12-09T10:35:32.920Z,15.68
2022-12-09T10:38:13.235Z,15.70
2022-12-09T10:40:46.981Z,17.45
2022-12-09T10:43:35.213Z,16.55
2022-12-09T10:46:18.355Z,20.55
2022-12-09T10:48:46.737Z,15.50
2022-12-09T10:51:24.870Z,17.42
2022-12-09T10:54:04.193Z,19.27
2022-12-09T10:56:36.859Z,19.65
2022-12-09T10:59:27.407Z,16.25
2022-12-09T11:02:02.031Z,16.85
2022-12-09T11:04:43.934Z,16.30
2022-12-09T11:07:18.260Z,18.23
2022-12-09T11:10:18.476Z,16.02
2022-12-09T11:12:51.348Z,17.33
2022-12-09T11:15:43.128Z,19.45
2022-12-09T11:18:31.253Z,19.23
2022-12-09T11:21:08.859Z,19.00
2022-12-09T11:23:36.894Z,19.98
2022-12-09T11:26:22.518Z,19.02
2022-12-09T11:29:04.627Z,21.75
2022-12-09T11:31:38.382Z,16.80
2022-12-09T11:34:20.834Z,18.00
2022-12-09T11:36:56.541Z,16.88
2022-12-09T11:39:34.816Z,19.95
2022-12-09T11:42:22.937Z,19.02
2022-12-09T11:45:07.125Z,17.92
2022-12-09T11:48:20.250Z,18.98
2022-12-09T11:50:32.483Z,17.30
2022-12-09T11:53:11.008Z,19.40
2022-12-09T11:56:05.467Z,20.23
2022-12-09T11:58:58.076Z,17.40
2022-12-09T12:01:48.114Z,14.43
2022-12-09T12:04:31.153Z,15.65
2022-12-09T12:07:39.433Z,15.80
2022-12-09T12:10:29.145Z,21.05
2022-12-09T12:13:51.182Z,13.88
2022-12-09T12:17:13.218Z,14.50
2022-12-09T12:19:50.529Z,15.93
2022-12-09T12:23:12.089Z,18.52
2022-12-09T12:26:22.322Z,25.80
2022-12-09T12:29:25.276Z,21.70
2022-12-09T12:32:38.100Z,21.80
2022-12-09T12:35:32.084Z,19.27
2022-12-09T12:38:59.201Z,19.02
2022-12-09T12:41:53.975Z,23.70
2022-12-09T12:45:07.122Z,23.10
2022-12-09T12:47:47.975Z,18.58
2022-12-09T12:50:51.696Z,18.02
2022-12-09T12:53:46.485Z,18.58
2022-12-09T12:56:37.620Z,19.30
2022-12-09T12:59:40.860Z,21.55
2022-12-09T13:03:09.570Z,17.55
2022-12-09T13:05:42.669Z,21.83
2022-12-09T13:08:52.625Z,21.75
2022-12-09T13:12:07.978Z,21.67
2022-12-09T13:15:02.229Z,23.55
2022-12-09T13:17:30.932Z,22.10
2022-12-09T13:20:01.901Z,26.20
2022-12-09T13:23:30.975Z,36.33
2022-12-09T13:26:13.032Z,33.80
2022-12-09T13:29:13.588Z,28.63
2022-12-09T13:32:27.627Z,27.95
2022-12-09T13:35:13.397Z,22.52
2022-12-09T13:37:43.580Z,28.65
2022-12-09T13:40:37.636Z,25.60
2022-12-09T13:43:12.869Z,23.67
2022-12-09T13:45:43.068Z,22.65
2022-12-09T13:48:17.025Z,21.13
2022-12-09T13:50:56.925Z,22.48
2022-12-09T13:53:40.006Z,21.30
2022-12-09T13:56:35.055Z,20.70
2022-12-09T13:59:56.549Z,23.98
2022-12-09T14:03:10.815Z,25.23
2022-12-09T14:05:39.549Z,17.88
2022-12-09T14:08:26.436Z,17.25
2022-12-09T14:10:54.028Z,20.98
2022-12-09T14:13:35.203Z,19.38
2022-12-09T14:16:34.842Z,18.73
2022-12-09T14:19:52.697Z,16.75
2022-12-09T14:22:20.103Z,18.00
2022-12-09T14:25:56.754Z,17.20
2022-12-09T14:28:34.877Z,18.27
2022-12-09T14:31:08.405Z,20.63
2022-12-09T14:33:46.669Z,23.08
2022-12-09T14:36:16.507Z,23.77
2022-12-09T14:39:26.336Z,22.92
2022-12-09T14:42:05.769Z,23.38
2022-12-09T14:45:02.268Z,23.02
2022-12-09T14:47:40.493Z,25.60
2022-12-09T14:50:28.965Z,26.50
2022-12-09T14:53:03.728Z,27.60
2022-12-09T14:55:38.635Z,30.40
2022-12-09T14:58:06.369Z,28.67
2022-12-09T15:00:40.807Z,27.73
2022-12-09T15:03:33.228Z,26.10
2022-12-09T15:06:19.154Z,26.80
2022-12-09T15:08:48.152Z,27.58
2022-12-09T15:11:20.234Z,29.17
2022-12-09T15:13:52.282Z,25.88
2022-12-09T15:16:25.721Z,21.98
2022-12-09T15:18:54.657Z,34.33
2022-12-09T15:21:32.250Z,24.00
2022-12-09T15:24:00.823Z,29.98
2022-12-09T15:26:33.524Z,24.48
2022-12-09T15:29:04.945Z,26.17
2022-12-09T15:31:34.284Z,28.33
2022-12-09T15:34:20.485Z,29.20
2022-12-09T15:36:59.324Z,46.75
2022-12-09T15:39:38.869Z,33.67
2022-12-09T15:42:18.148Z,36.22
2022-12-09T15:45:08.137Z,37.67
2022-12-09T15:47:40.753Z,35.55
2022-12-09T15:50:21.466Z,37.95
2022-12-09T15:53:14.159Z,34.85
2022-12-09T15:55:52.044Z,36.92
2022-12-09T15:58:26.522Z,41.85
2022-12-09T16:00:54.912Z,37.92
2022-12-09T16:03:31.809Z,36.55
2022-12-09T16:06:07.241Z,40.20
2022-12-09T16:08:43.615Z,45.47
2022-12-09T16:11:12.294Z,41.45
2022-12-09T16:14:00.827Z,46.03
2022-12-09T16:17:01.674Z,40.58
2022-12-09T16:19:32.775Z,44.47
2022-12-09T16:22:19.709Z,47.05
2022-12-09T16:25:15.650Z,48.80
2022-12-09T16:27:56.501Z,45.83
2022-12-09T16:30:27.014Z,47.63
2022-12-09T16:33:02.985Z,42.55
2022-12-09T16:36:06.860Z,42.50
2022-12-09T16:38:36.655Z,44.20
2022-12-09T16:41:10.039Z,41.25
2022-12-09T16:43:53.409Z,43.35
2022-12-09T16:46:20.518Z,37.40
2022-12-09T16:48:49.731Z,39.22
2022-12-09T16:51:25.029Z,41.65
2022-12-09T16:53:54.179Z,35.55
2022-12-09T16:56:31.823Z,37.20
2022-12-09T16:58:59.753Z,35.50
2022-12-09T17:01:34.846Z,36.65
2022-12-09T17:04:13.767Z,34.35
2022-12-09T17:06:40.968Z,32.20
2022-12-09T17:09:09.769Z,32.55
2022-12-09T17:11:37.057Z,32.35
2022-12-09T17:14:04.657Z,35.42
2022-12-09T17:16:33.796Z,34.40
2022-12-09T17:19:06.200Z,34.30
2022-12-09T17:21:35.775Z,34.83
2022-12-09T17:24:03.155Z,40.33
2022-12-09T17:26:30.446Z,39.60
2022-12-09T17:29:01.517Z,42.35
2022-12-09T17:31:30.064Z,37.92
2022-12-09T17:33:57.723Z,35.25
2022-12-09T17:36:25.903Z,36.35
2022-12-09T17:38:53.128Z,41.22
2022-12-09T17:41:23.551Z,35.47
2022-12-09T17:43:50.992Z,38.47
2022-12-09T17:46:18.789Z,38.60
2022-12-09T17:48:46.200Z,37.90
2022-12-09T17:51:17.881Z,37.30
2022-12-09T17:53:46.614Z,38.72
2022-12-09T17:56:23.283Z,44.15
2022-12-09T17:59:07.573Z,38.97
2022-12-09T18:01:37.371Z,37.95
2022-12-09T18:04:11.293Z,42.85
2022-12-09T18:06:45.391Z,43.63
2022-12-09T18:09:18.410Z,45.45
2022-12-09T18:11:46.859Z,42.67
2022-12-09T18:14:15.747Z,45.97
2022-12-09T18:16:43.474Z,41.67
2022-12-09T18:19:16.399Z,42.13
2022-12-09T18:21:45.034Z,41.95
2022-12-09T18:24:13.090Z,40.08
2022-12-09T18:26:42.149Z,42.83
2022-12-09T18:29:12.119Z,39.58
2022-12-09T18:31:40.599Z,45.30
2022-12-09T18:34:07.863Z,39.67
2022-12-09T18:36:35.503Z,41.22
2022-12-09T18:39:03.884Z,41.03
2022-12-09T18:41:32.585Z,41.75
2022-12-09T18:44:05.598Z,40.20
2022-12-09T18:46:38.588Z,41.25
2022-12-09T18:49:13.708Z,41.72
2022-12-09T18:51:44.302Z,42.88
2022-12-09T18:54:28.157Z,42.70
2022-12-09T18:56:59.583Z,41.03
2022-12-09T18:59:26.902Z,38.65
2022-12-09T19:01:54.609Z,46.67
2022-12-09T19:04:26.696Z,42.72
2022-12-09T19:06:58.657Z,44.03
2022-12-09T19:09:34.627Z,55.25
2022-12-09T19:12:37.894Z,62.20
2022-12-09T19:14:52.072Z,46.65
2022-12-09T19:17:20.017Z,40.67
2022-12-09T19:19:48.687Z,38.72
2022-12-09T19:22:16.023Z,38.28
2022-12-09T19:24:44.197Z,41.47
2022-12-09T19:27:13.358Z,37.60
2022-12-09T19:29:40.781Z,36.97
2022-12-09T19:32:29.307Z,39.03
2022-12-09T19:34:55.363Z,39.33
2022-12-09T19:37:22.649Z,35.55
2022-12-09T19:39:50.288Z,39.87
2022-12-09T19:42:19.124Z,37.03
2022-12-09T19:45:09.082Z,40.83
2022-12-09T19:47:47.711Z,37.25
2022-12-09T19:50:15.111Z,40.50
2022-12-09T19:52:42.466Z,38.90
2022-12-09T19:55:09.965Z,43.95
2022-12-09T19:57:37.163Z,36.15
2022-12-09T20:00:05.697Z,34.88
2022-12-09T20:02:34.675Z,40.00
2022-12-09T20:05:02.005Z,35.95
2022-12-09T20:07:29.805Z,37.53
2022-12-09T20:09:57.002Z,42.47
2022-12-09T20:12:24.113Z,31.77
2022-12-09T20:14:51.292Z,34.45
2022-12-09T20:17:18.548Z,37.55
2022-12-09T20:19:46.631Z,32.92
2022-12-09T20:22:14.145Z,28.40
2022-12-09T20:24:43.082Z,27.83
2022-12-09T20:27:10.352Z,35.38
2022-12-09T20:29:38.480Z,36.13
2022-12-09T20:32:08.870Z,32.47
2022-12-09T20:34:36.571Z,26.15
2022-12-09T20:37:04.584Z,29.23
2022-12-09T20:39:32.085Z,30.27
2022-12-09T20:41:59.392Z,33.40
2022-12-09T20:44:26.683Z,35.55
2022-12-09T20:46:53.932Z,41.78
2022-12-09T20:49:26.290Z,33.83
2022-12-09T20:51:55.983Z,32.58
2022-12-09T20:54:23.584Z,36.13
2022-12-09T20:56:52.906Z,33.22
2022-12-09T20:59:20.630Z,34.90
2022-12-09T21:01:47.956Z,38.92
2022-12-09T21:04:17.917Z,36.00
2022-12-09T21:06:46.603Z,36.97
2022-12-09T21:09:21.320Z,38.28
2022-12-09T21:11:50.049Z,33.78
2022-12-09T21:14:18.670Z,36.00
2022-12-09T21:16:47.678Z,37.20
2022-12-09T21:19:20.118Z,38.65
2022-12-09T21:21:48.352Z,37.80
2022-12-09T21:24:17.291Z,37.28
2022-12-09T21:26:47.101Z,36.45
2022-12-09T21:29:15.867Z,33.83
2022-12-09T21:31:44.524Z,38.53
2022-12-09T21:34:12.831Z,37.05
2022-12-09T21:36:43.620Z,38.30
2022-12-09T21:39:17.007Z,37.22
2022-12-09T21:41:44.928Z,37.53
2022-12-09T21:44:18.711Z,37.47
2022-12-09T21:46:46.286Z,33.45
2022-12-09T21:49:13.930Z,36.63
2022-12-09T21:51:42.324Z,40.60
2022-12-09T21:54:09.552Z,40.00
2022-12-09T21:56:37.834Z,36.20
2022-12-09T21:59:07.284Z,37.00
2022-12-09T22:01:41.318Z,37.38
2022-12-09T22:04:16.052Z,34.85
2022-12-09T22:06:50.993Z,38.03
2022-12-09T22:09:21.004Z,39.80
2022-12-09T22:11:48.663Z,38.15
2022-12-09T22:14:15.987Z,34.88
2022-12-09T22:16:46.114Z,35.55
2022-12-09T22:19:18.791Z,32.42
2022-12-09T22:21:47.424Z,30.45
2022-12-09T22:24:15.804Z,33.92
2022-12-09T22:26:43.920Z,37.72
2022-12-09T22:29:15.089Z,33.40
2022-12-09T22:31:43.894Z,34.15
2022-12-09T22:34:20.136Z,33.50
2022-12-09T22:36:49.217Z,34.50
2022-12-09T22:39:21.521Z,33.60
2022-12-09T22:41:48.938Z,32.40
2022-12-09T22:44:19.853Z,33.72
2022-12-09T22:46:48.543Z,37.70
2022-12-09T22:49:16.630Z,33.25
2022-12-09T22:51:45.913Z,32.05
2022-12-09T22:54:13.898Z,31.17
2022-12-09T22:56:43.583Z,30.13
2022-12-09T22:59:13.056Z,31.20
2022-12-09T23:01:43.082Z,30.48
2022-12-09T23:04:11.798Z,29.75
2022-12-09T23:06:42.257Z,26.05
2022-12-09T23:09:17.755Z,28.50
2022-12-09T23:11:45.823Z,29.73
2022-12-09T23:14:14.438Z,30.38
2022-12-09T23:16:42.012Z,31.48
2022-12-09T23:19:12.720Z,29.83
2022-12-09T23:21:43.120Z,31.88
2022-12-09T23:24:15.696Z,30.52
2022-12-09T23:26:45.835Z,30.45
2022-12-09T23:29:16.249Z,33.10
2022-12-09T23:31:43.984Z,30.30
2022-12-09T23:34:13.920Z,30.65
2022-12-09T23:36:44.498Z,33.97
2022-12-09T23:39:17.363Z,33.40
2022-12-09T23:41:46.034Z,30.05
2022-12-09T23:44:17.836Z,31.50
2022-12-09T23:46:45.445Z,32.45
2022-12-09T23:49:12.846Z,31.48
2022-12-09T23:51:43.828Z,32.50
2022-12-09T23:54:14.539Z,28.20
2022-12-09T23:56:52.468Z,30.83
2022-12-09T23:59:22.842Z,28.73
